Time;durP1;ratioP1;P1;durP2;ratioP2;P2;SDS_P1;SDS_P2;PMS_P1;PMS_P2;Temp;Humidity;BMP_temperature;BMP_pressure;BME280_temperature;BME280_humidity;BME280_pressure;Samples;Min_cycle;Max_cycle;Signal;HPM_P1;HPM_P2
2021/07/10 00:01:30;;;;;;;12.65;9.82;;;18.10;99.90;;;;;;5034302;28;20347;-68
2021/07/10 00:03:56;;;;;;;13.18;8.98;;;18.00;99.90;;;;;;5035364;28;20390;-66
2021/07/10 00:06:22;;;;;;;14.63;10.90;;;17.90;99.90;;;;;;5053029;28;20029;-66
2021/07/10 00:08:48;;;;;;;11.35;9.15;;;17.80;99.90;;;;;;5052245;28;20032;-66
2021/07/10 00:11:13;;;;;;;16.67;12.48;;;17.80;99.90;;;;;;5034702;28;20379;-66
2021/07/10 00:13:39;;;;;;;12.52;10.45;;;17.70;99.90;;;;;;5052527;28;20037;-68
2021/07/10 00:16:05;;;;;;;10.20;8.43;;;17.80;99.90;;;;;;5053324;28;20060;-66
2021/07/10 00:18:31;;;;;;;11.57;9.90;;;17.60;99.90;;;;;;5034791;28;20033;-78
2021/07/10 00:20:57;;;;;;;19.13;9.18;;;17.60;99.90;;;;;;5052546;28;20025;-66
2021/07/10 00:23:23;;;;;;;14.15;8.27;;;17.70;99.90;;;;;;5034639;28;20519;-66
2021/07/10 00:25:48;;;;;;;12.63;8.70;;;17.80;99.90;;;;;;5052529;28;20053;-68
2021/07/10 00:28:14;;;;;;;13.45;9.55;;;17.70;99.90;;;;;;5034780;28;20466;-66
2021/07/10 00:30:39;;;;;;;14.73;9.32;;;17.60;99.90;;;;;;5034092;28;20083;-67
2021/07/10 00:33:05;;;;;;;11.32;8.77;;;17.60;99.90;;;;;;5052634;28;20115;-66
2021/07/10 00:35:31;;;;;;;9.90;8.90;;;17.60;99.90;;;;;;5052805;28;20043;-66
2021/07/10 00:37:57;;;;;;;9.38;8.27;;;17.60;99.90;;;;;;5052791;28;20025;-66
2021/07/10 00:40:23;;;;;;;9.35;8.35;;;17.60;99.90;;;;;;5034161;28;20512;-67
2021/07/10 00:42:49;;;;;;;10.60;8.77;;;17.60;99.90;;;;;;5052011;28;20033;-67
2021/07/10 00:45:16;;;;;;;14.20;9.23;;;17.60;99.90;;;;;;5034267;28;20040;-67
2021/07/10 00:47:42;;;;;;;12.45;8.35;;;17.60;99.90;;;;;;5033720;28;20025;-67
2021/07/10 00:50:26;;;;;;;13.43;8.45;;;17.50;99.90;;;;;;5034357;28;20037;-66
2021/07/10 00:52:52;;;;;;;11.27;7.53;;;17.50;99.90;;;;;;5033890;28;20367;-66
2021/07/10 00:55:19;;;;;;;10.70;8.77;;;17.50;99.90;;;;;;5034453;28;20029;-67
2021/07/10 00:57:46;;;;;;;10.93;8.88;;;17.50;99.90;;;;;;5051398;28;20142;-68
2021/07/10 01:00:20;;;;;;;16.83;8.43;;;17.50;99.90;;;;;;5051829;28;20090;-67
2021/07/10 01:02:48;;;;;;;10.10;7.30;;;17.30;99.90;;;;;;5033210;28;20029;-68
2021/07/10 01:05:18;;;;;;;11.25;7.93;;;17.20;99.90;;;;;;5033845;28;20082;-68
2021/07/10 01:07:44;;;;;;;12.93;8.30;;;17.10;99.90;;;;;;5033485;28;20406;-67
2021/07/10 01:10:11;;;;;;;9.68;8.23;;;17.20;99.90;;;;;;5051538;28;20090;-67
2021/07/10 01:12:38;;;;;;;12.25;8.45;;;17.20;99.90;;;;;;5032708;28;20108;-67
2021/07/10 01:15:06;;;;;;;12.05;7.55;;;17.20;99.90;;;;;;5033970;28;20049;-67
2021/07/10 01:17:32;;;;;;;8.98;7.85;;;17.20;99.90;;;;;;5033963;28;20108;-67
2021/07/10 01:20:08;;;;;;;10.52;8.73;;;17.20;99.90;;;;;;5033478;28;20111;-67
2021/07/10 01:22:38;;;;;;;12.90;8.00;;;17.20;99.90;;;;;;5051974;28;20400;-74
2021/07/10 01:25:06;;;;;;;10.02;8.00;;;17.20;99.90;;;;;;5053015;28;20060;-66
2021/07/10 01:27:31;;;;;;;10.93;7.57;;;17.20;99.90;;;;;;5070507;28;20028;-67
2021/07/10 01:29:58;;;;;;;14.18;8.77;;;17.10;99.90;;;;;;5071262;28;20039;-67
2021/07/10 01:32:24;;;;;;;16.17;9.20;;;17.20;99.90;;;;;;5071288;28;20391;-66
2021/07/10 01:34:50;;;;;;;15.77;8.95;;;17.10;99.90;;;;;;5071249;28;20119;-67
2021/07/10 01:37:17;;;;;;;8.93;8.02;;;17.00;99.90;;;;;;5071466;28;20036;-67
2021/07/10 01:39:43;;;;;;;9.98;8.35;;;17.00;99.90;;;;;;5069598;28;20485;-67
2021/07/10 01:42:10;;;;;;;10.77;9.02;;;17.00;99.90;;;;;;5070228;28;20036;-66
2021/07/10 01:44:37;;;;;;;10.20;7.45;;;17.10;99.90;;;;;;5069717;28;20024;-76
2021/07/10 01:47:04;;;;;;;9.75;8.75;;;17.10;99.90;;;;;;5070044;28;20032;-67
2021/07/10 01:49:30;;;;;;;9.25;7.90;;;17.10;99.90;;;;;;5071204;28;20029;-66
2021/07/10 01:51:56;;;;;;;10.27;9.20;;;17.00;99.90;;;;;;5068481;28;20554;-68
2021/07/10 01:54:21;;;;;;;8.55;7.72;;;17.00;99.90;;;;;;5069770;28;20106;-67
2021/07/10 01:56:48;;;;;;;8.98;6.97;;;17.00;99.90;;;;;;5069289;28;20024;-67
2021/07/10 01:59:13;;;;;;;11.93;8.30;;;17.10;99.90;;;;;;5071365;28;20408;-67
2021/07/10 02:01:39;;;;;;;9.13;7.10;;;17.00;99.90;;;;;;5070589;28;20027;-68
2021/07/10 02:04:08;;;;;;;10.35;7.80;;;16.80;99.90;;;;;;5069813;28;20082;-67
2021/07/10 02:06:33;;;;;;;8.07;7.28;;;17.00;99.90;;;;;;5069659;28;20059;-67
2021/07/10 02:08:59;;;;;;;8.57;7.53;;;16.90;99.90;;;;;;5069887;28;20028;-66
2021/07/10 02:11:25;;;;;;;10.05;7.75;;;16.90;99.90;;;;;;5070974;28;20126;-67
2021/07/10 02:13:50;;;;;;;10.45;7.63;;;16.80;99.90;;;;;;5068993;28;20091;-68
2021/07/10 02:16:16;;;;;;;9.65;7.10;;;16.80;99.90;;;;;;5069571;28;20123;-67
2021/07/10 02:18:42;;;;;;;10.75;7.88;;;16.80;99.90;;;;;;5069039;28;20028;-68
2021/07/10 02:21:09;;;;;;;8.63;7.53;;;16.70;99.90;;;;;;5069457;28;20039;-66
2021/07/10 02:23:35;;;;;;;8.70;7.80;;;16.80;99.90;;;;;;5070657;28;20226;-67
2021/07/10 02:26:00;;;;;;;13.23;6.90;;;16.70;99.90;;;;;;5068845;28;20160;-66
2021/07/10 02:28:26;;;;;;;10.82;8.05;;;16.70;99.90;;;;;;5069530;28;20031;-67
2021/07/10 02:30:52;;;;;;;11.15;8.07;;;16.70;99.90;;;;;;5070290;28;20032;-66
2021/07/10 02:33:17;;;;;;;12.80;8.35;;;16.70;99.90;;;;;;5070398;28;20085;-66
2021/07/10 02:35:44;;;;;;;8.90;7.25;;;16.50;99.90;;;;;;5070230;28;20082;-66
2021/07/10 02:38:11;;;;;;;8.32;7.30;;;16.60;99.90;;;;;;5070781;28;20020;-66
2021/07/10 02:40:37;;;;;;;9.73;8.20;;;16.70;99.90;;;;;;5070817;28;20016;-65
2021/07/10 02:43:04;;;;;;;10.02;6.80;;;16.70;99.90;;;;;;5070341;28;20376;-66
2021/07/10 02:45:29;;;;;;;10.75;7.63;;;16.50;99.90;;;;;;5070693;28;20031;-66
2021/07/10 02:47:55;;;;;;;12.15;8.23;;;16.50;99.90;;;;;;5068787;28;20024;-67
2021/07/10 02:50:23;;;;;;;8.57;7.40;;;16.60;99.90;;;;;;5069347;28;20024;-67
2021/07/10 02:52:49;;;;;;;16.23;7.88;;;16.60;99.90;;;;;;5069962;28;20044;-67
2021/07/10 02:55:15;;;;;;;9.82;8.30;;;16.70;99.90;;;;;;5069556;28;20458;-66
2021/07/10 02:57:41;;;;;;;12.70;8.35;;;16.70;99.90;;;;;;5070073;28;20149;-75
2021/07/10 03:00:11;;;;;;;11.70;8.98;;;16.70;99.90;;;;;;5069581;28;20481;-67
2021/07/10 03:02:37;;;;;;;11.30;8.30;;;16.50;99.90;;;;;;5073050;28;20031;-65
2021/07/10 03:05:04;;;;;;;8.88;7.65;;;16.60;99.90;;;;;;5072296;28;20028;-66
2021/07/10 03:07:30;;;;;;;10.05;9.07;;;16.60;99.90;;;;;;5073047;28;20497;-66
2021/07/10 03:09:55;;;;;;;10.40;8.68;;;16.60;99.90;;;;;;5073960;28;20028;-66
2021/07/10 03:12:21;;;;;;;13.18;8.85;;;16.60;99.90;;;;;;5072663;28;20024;-66
2021/07/10 03:14:47;;;;;;;10.60;7.97;;;16.50;99.90;;;;;;5073680;28;20503;-66
2021/07/10 03:17:12;;;;;;;14.88;8.90;;;16.50;99.90;;;;;;5072620;28;20112;-66
2021/07/10 03:19:38;;;;;;;9.57;7.85;;;16.40;99.90;;;;;;5072752;28;20024;-66
2021/07/10 03:22:04;;;;;;;11.60;9.10;;;16.40;99.90;;;;;;5071814;28;20032;-66
2021/07/10 03:24:29;;;;;;;11.35;9.18;;;16.40;99.90;;;;;;5072448;28;20344;-66
2021/07/10 03:26:55;;;;;;;8.88;7.75;;;16.40;99.90;;;;;;5073455;28;20107;-67
2021/07/10 03:29:20;;;;;;;9.60;8.25;;;16.40;99.90;;;;;;5072734;28;20067;-66
2021/07/10 03:31:46;;;;;;;11.75;8.20;;;16.40;99.90;;;;;;5073220;28;20027;-67
2021/07/10 03:34:12;;;;;;;10.90;7.72;;;16.40;99.90;;;;;;5073786;28;20128;-67
2021/07/10 03:36:37;;;;;;;9.00;7.85;;;16.40;99.90;;;;;;5072712;28;20036;-66
2021/07/10 03:39:03;;;;;;;11.52;8.45;;;16.40;99.90;;;;;;5071738;28;20032;-67
2021/07/10 03:41:29;;;;;;;15.68;7.55;;;16.50;99.90;;;;;;5072364;28;20028;-66
2021/07/10 03:43:54;;;;;;;13.05;8.05;;;16.50;99.90;;;;;;5071875;28;20123;-66
2021/07/10 03:46:20;;;;;;;10.18;7.63;;;16.50;99.90;;;;;;5073360;28;20020;-66
2021/07/10 03:48:46;;;;;;;12.15;7.68;;;16.70;99.90;;;;;;5071542;28;20059;-66
2021/07/10 03:51:11;;;;;;;7.68;6.85;;;16.70;99.90;;;;;;5073476;28;20025;-66
2021/07/10 03:53:37;;;;;;;12.52;7.25;;;16.70;99.90;;;;;;5073535;28;20033;-67
2021/07/10 03:56:03;;;;;;;13.25;8.55;;;16.60;99.90;;;;;;5071252;28;20399;-66
2021/07/10 03:58:29;;;;;;;13.25;7.35;;;16.60;99.90;;;;;;5072218;28;20024;-67
2021/07/10 04:00:55;;;;;;;8.30;6.88;;;16.70;99.90;;;;;;5072528;28;20469;-66
2021/07/10 04:03:20;;;;;;;12.00;6.38;;;16.70;99.90;;;;;;5071451;28;20123;-67
2021/07/10 04:05:46;;;;;;;8.95;8.05;;;16.80;99.90;;;;;;5072938;28;20028;-66
2021/07/10 04:08:12;;;;;;;8.82;7.43;;;16.70;99.90;;;;;;5073331;28;20370;-67
2021/07/10 04:10:37;;;;;;;10.27;8.02;;;16.70;99.90;;;;;;5071820;28;20323;-66
2021/07/10 04:13:03;;;;;;;11.00;7.55;;;16.70;99.90;;;;;;5070526;28;20025;-67
2021/07/10 04:15:29;;;;;;;13.73;8.10;;;16.70;99.90;;;;;;5072821;28;20063;-67
2021/07/10 04:17:54;;;;;;;12.95;7.80;;;16.80;99.90;;;;;;5072317;28;20509;-66
2021/07/10 04:20:20;;;;;;;8.55;6.93;;;16.80;99.90;;;;;;5072985;28;20116;-69
2021/07/10 04:22:47;;;;;;;9.00;8.15;;;16.90;99.90;;;;;;5070760;28;20040;-70
2021/07/10 04:25:15;;;;;;;9.23;7.75;;;16.90;99.90;;;;;;5059966;28;20107;-67
2021/07/10 04:27:43;;;;;;;8.57;7.68;;;16.90;99.90;;;;;;5052899;28;20029;-67
2021/07/10 04:30:10;;;;;;;8.48;7.65;;;16.90;99.90;;;;;;5034279;28;20064;-67
2021/07/10 04:32:36;;;;;;;8.80;6.70;;;16.70;99.90;;;;;;5052925;28;20033;-67
2021/07/10 04:35:02;;;;;;;8.88;7.97;;;16.80;99.90;;;;;;5052425;28;20398;-67
2021/07/10 04:37:28;;;;;;;10.35;7.60;;;16.90;99.90;;;;;;5052671;28;20033;-68
2021/07/10 04:39:54;;;;;;;10.25;8.85;;;16.90;99.90;;;;;;5052325;28;20047;-67
2021/07/10 04:42:21;;;;;;;11.63;8.70;;;16.90;99.90;;;;;;5052711;28;20112;-68
2021/07/10 04:44:47;;;;;;;11.13;7.90;;;16.80;99.90;;;;;;5052458;28;20132;-76
2021/07/10 04:47:13;;;;;;;8.80;7.90;;;16.90;99.90;;;;;;5034714;28;20028;-66
2021/07/10 04:49:39;;;;;;;10.38;8.40;;;16.90;99.90;;;;;;5052261;28;20032;-66
2021/07/10 04:52:05;;;;;;;8.82;8.00;;;17.00;99.90;;;;;;5033548;28;20035;-67
2021/07/10 04:54:31;;;;;;;8.63;6.95;;;17.00;99.90;;;;;;5034683;28;20033;-67
2021/07/10 04:56:57;;;;;;;9.80;7.93;;;17.10;99.90;;;;;;5033903;28;20444;-67
2021/07/10 04:59:22;;;;;;;9.13;8.18;;;17.20;99.90;;;;;;5035902;28;20131;-66
2021/07/10 05:01:48;;;;;;;9.25;7.68;;;17.10;99.90;;;;;;5033748;28;20136;-70
2021/07/10 05:04:14;;;;;;;12.85;10.00;;;17.20;99.90;;;;;;5052260;28;20029;-66
2021/07/10 05:06:39;;;;;;;17.73;13.07;;;17.30;99.90;;;;;;5034200;28;20101;-67
2021/07/10 05:09:05;;;;;;;12.20;9.90;;;17.20;99.90;;;;;;5051462;28;20504;-66
2021/07/10 05:11:31;;;;;;;9.95;9.00;;;17.10;99.90;;;;;;5034077;28;20029;-66
2021/07/10 05:13:56;;;;;;;12.63;8.18;;;17.20;99.90;;;;;;5051287;28;20091;-66
2021/07/10 05:16:22;;;;;;;9.75;8.65;;;17.10;99.90;;;;;;5051847;28;20052;-67
2021/07/10 05:18:48;;;;;;;9.98;8.45;;;17.30;99.90;;;;;;5034002;28;20024;-67
2021/07/10 05:21:14;;;;;;;9.77;7.70;;;17.20;99.90;;;;;;5051973;28;20032;-67
2021/07/10 05:23:41;;;;;;;13.63;8.63;;;17.00;99.90;;;;;;5051875;28;20079;-67
2021/07/10 05:26:09;;;;;;;10.13;7.68;;;16.90;99.90;;;;;;5032090;28;20127;-67
2021/07/10 05:28:35;;;;;;;9.60;8.73;;;16.90;99.90;;;;;;5052208;28;20021;-68
2021/07/10 05:31:01;;;;;;;11.18;9.98;;;17.00;99.90;;;;;;5033361;28;20028;-69
2021/07/10 05:33:26;;;;;;;12.25;10.45;;;16.90;99.90;;;;;;5051782;28;20033;-66
2021/07/10 05:35:52;;;;;;;10.60;9.50;;;17.00;99.90;;;;;;5051285;28;20395;-67
2021/07/10 05:38:18;;;;;;;17.33;10.23;;;17.00;99.90;;;;;;5033601;28;20029;-68
2021/07/10 05:40:44;;;;;;;12.63;9.88;;;17.10;99.90;;;;;;5033614;28;20055;-68
2021/07/10 05:43:10;;;;;;;10.90;9.80;;;17.10;99.90;;;;;;5034154;28;20659;-66
2021/07/10 05:45:35;;;;;;;11.00;9.85;;;17.20;99.90;;;;;;5033918;28;20086;-68
2021/07/10 05:48:01;;;;;;;11.85;10.63;;;17.20;99.90;;;;;;5032966;28;20493;-66
2021/07/10 05:50:27;;;;;;;12.55;10.30;;;17.50;99.90;;;;;;5033133;28;20032;-67
2021/07/10 05:52:53;;;;;;;13.15;10.93;;;17.60;99.90;;;;;;5032483;28;20043;-68
2021/07/10 05:55:18;;;;;;;13.65;10.25;;;17.50;99.90;;;;;;5051380;28;20029;-68
2021/07/10 05:57:44;;;;;;;15.60;11.23;;;17.50;99.90;;;;;;5033339;28;20499;-67
2021/07/10 06:00:11;;;;;;;12.65;10.45;;;17.50;99.90;;;;;;5050498;28;20421;-69
2021/07/10 06:02:38;;;;;;;12.23;10.93;;;17.50;99.90;;;;;;5050934;28;20041;-68
2021/07/10 06:05:05;;;;;;;12.32;10.50;;;17.70;99.90;;;;;;5050553;28;20039;-68
2021/07/10 06:07:31;;;;;;;12.75;10.18;;;17.80;99.90;;;;;;5033159;28;20037;-67
2021/07/10 06:09:57;;;;;;;12.10;10.85;;;17.70;99.90;;;;;;5050393;28;20120;-68
2021/07/10 06:12:23;;;;;;;12.02;10.73;;;17.80;99.90;;;;;;5051303;28;20033;-67
2021/07/10 06:14:48;;;;;;;16.13;12.27;;;17.90;99.90;;;;;;5033063;28;20567;-68
2021/07/10 06:17:14;;;;;;;15.35;12.30;;;18.10;99.90;;;;;;5050032;28;20055;-67
2021/07/10 06:19:39;;;;;;;15.80;12.20;;;18.10;99.90;;;;;;5032919;28;20051;-67
2021/07/10 06:22:05;;;;;;;16.80;12.13;;;18.20;99.90;;;;;;5050711;28;20082;-68
2021/07/10 06:24:31;;;;;;;19.58;12.25;;;18.30;99.90;;;;;;5050667;28;20088;-69
2021/07/10 06:26:57;;;;;;;17.35;12.32;;;18.40;99.90;;;;;;5031724;28;20164;-70
2021/07/10 06:29:23;;;;;;;17.27;14.00;;;18.50;99.90;;;;;;5033013;28;20112;-68
2021/07/10 06:31:48;;;;;;;54.78;38.05;;;18.40;99.90;;;;;;5050327;28;20112;-69
2021/07/10 06:34:14;;;;;;;108.45;71.25;;;18.50;99.90;;;;;;5049627;28;20025;-67
2021/07/10 06:36:41;;;;;;;55.90;41.08;;;18.80;99.90;;;;;;5034689;28;20037;-68
2021/07/10 06:39:06;;;;;;;38.38;25.63;;;18.80;99.90;;;;;;5038953;28;20455;-69
2021/07/10 06:41:33;;;;;;;27.55;20.48;;;18.90;99.90;;;;;;5039353;28;20484;-68
2021/07/10 06:43:59;;;;;;;24.65;17.70;;;18.80;99.90;;;;;;5038655;28;20029;-67
2021/07/10 06:46:25;;;;;;;23.67;19.67;;;18.80;99.90;;;;;;5039028;28;20116;-68
2021/07/10 06:48:50;;;;;;;27.83;20.02;;;18.80;99.90;;;;;;5057215;28;20060;-68
2021/07/10 06:51:19;;;;;;;23.23;18.50;;;19.00;99.90;;;;;;5056329;28;20028;-67
2021/07/10 06:53:45;;;;;;;24.40;18.45;;;19.10;99.90;;;;;;5057571;28;20036;-68
2021/07/10 06:56:11;;;;;;;22.83;16.77;;;18.90;99.90;;;;;;5038744;28;20025;-68
2021/07/10 06:58:37;;;;;;;21.48;17.08;;;19.00;99.90;;;;;;5039865;28;20029;-67
2021/07/10 07:01:03;;;;;;;18.23;15.55;;;19.10;99.90;;;;;;5056615;28;20104;-68
2021/07/10 07:03:30;;;;;;;17.10;15.32;;;19.30;99.90;;;;;;5057555;28;20033;-68
2021/07/10 07:05:55;;;;;;;17.25;14.80;;;19.50;99.90;;;;;;5038654;28;20439;-74
2021/07/10 07:08:21;;;;;;;18.30;15.00;;;19.50;99.90;;;;;;5056900;28;20029;-68
2021/07/10 07:10:46;;;;;;;16.33;13.23;;;19.40;99.90;;;;;;5039031;28;20060;-67
2021/07/10 07:13:12;;;;;;;18.17;14.40;;;19.50;99.90;;;;;;5056590;28;20033;-67
2021/07/10 07:15:38;;;;;;;17.70;14.50;;;19.70;99.90;;;;;;5039195;28;20082;-67
2021/07/10 07:18:04;;;;;;;15.48;13.88;;;19.80;99.90;;;;;;5038449;28;20070;-68
2021/07/10 07:20:30;;;;;;;12.70;11.35;;;20.00;99.90;;;;;;5056866;28;20480;-73
2021/07/10 07:22:56;;;;;;;18.30;12.82;;;19.90;99.90;;;;;;5039859;28;20032;-76
2021/07/10 07:25:23;;;;;;;16.65;14.10;;;20.00;99.90;;;;;;5065524;28;20067;-76
2021/07/10 07:27:51;;;;;;;14.55;12.88;;;20.30;99.90;;;;;;5075644;28;20020;-75
2021/07/10 07:30:17;;;;;;;13.57;12.15;;;20.50;99.90;;;;;;5074883;28;20304;-75
2021/07/10 07:32:44;;;;;;;15.77;13.10;;;20.60;99.90;;;;;;5077257;28;20035;-75
2021/07/10 07:35:12;;;;;;;14.00;11.60;;;20.60;99.90;;;;;;5074671;28;20530;-76
2021/07/10 07:37:38;;;;;;;16.02;13.13;;;20.70;99.90;;;;;;5075681;28;20158;-77
2021/07/10 07:40:07;;;;;;;16.23;13.00;;;20.90;99.90;;;;;;5076462;28;20416;-76
2021/07/10 07:42:33;;;;;;;15.32;10.82;;;21.00;99.90;;;;;;5074991;28;20056;-76
2021/07/10 07:44:58;;;;;;;13.45;12.05;;;21.00;99.90;;;;;;5075231;28;20063;-75
2021/07/10 07:47:24;;;;;;;13.15;11.75;;;21.30;99.90;;;;;;5076209;28;20052;-76
2021/07/10 07:49:50;;;;;;;13.27;11.70;;;21.40;99.90;;;;;;5070418;28;20024;-77
2021/07/10 07:52:16;;;;;;;16.80;11.20;;;21.50;99.90;;;;;;5073158;28;20107;-77
2021/07/10 07:54:42;;;;;;;12.43;10.68;;;21.60;99.90;;;;;;5073441;28;20433;-76
2021/07/10 07:57:08;;;;;;;15.85;11.40;;;21.70;99.90;;;;;;5071187;28;20483;-70
2021/07/10 07:59:33;;;;;;;13.68;11.65;;;21.90;99.90;;;;;;5073194;28;20104;-69
2021/07/10 08:02:00;;;;;;;15.18;10.48;;;21.70;99.90;;;;;;5070909;28;20028;-71
2021/07/10 08:04:25;;;;;;;12.95;11.57;;;22.00;99.90;;;;;;5071144;28;20029;-69
2021/07/10 08:06:51;;;;;;;13.60;9.65;;;21.70;99.90;;;;;;5073628;28;20040;-71
2021/07/10 08:09:17;;;;;;;12.18;10.80;;;21.90;99.90;;;;;;5072695;28;20020;-68
2021/07/10 08:11:43;;;;;;;10.95;9.82;;;22.10;99.90;;;;;;5075057;28;20462;-68
2021/07/10 08:14:09;;;;;;;13.75;10.05;;;22.10;99.90;;;;;;5070204;28;20029;-70
2021/07/10 08:16:35;;;;;;;10.68;8.32;;;22.30;99.90;;;;;;5079856;28;20028;-72
2021/07/10 08:19:00;;;;;;;8.75;7.93;;;22.40;99.90;;;;;;5071224;28;20044;-74
2021/07/10 08:21:29;;;;;;;9.85;8.82;;;22.60;99.90;;;;;;5076140;28;20503;-69
2021/07/10 08:23:56;;;;;;;11.88;9.18;;;22.10;99.90;;;;;;5069642;28;20043;-70
2021/07/10 08:26:22;;;;;;;10.23;8.10;;;22.20;99.90;;;;;;5039253;28;20024;-70
2021/07/10 08:28:48;;;;;;;14.70;8.57;;;22.30;99.90;;;;;;5053255;28;20052;-69
2021/07/10 08:31:14;;;;;;;13.93;8.38;;;22.20;99.90;;;;;;5033550;28;20029;-68
2021/07/10 08:33:40;;;;;;;9.70;8.70;;;22.70;99.90;;;;;;5034193;28;20032;-70
2021/07/10 08:36:09;;;;;;;7.30;6.60;;;22.90;99.90;;;;;;5051599;28;20021;-69
2021/07/10 08:38:37;;;;;;;10.20;6.53;;;23.10;99.90;;;;;;5052484;28;20021;-69
2021/07/10 08:41:06;;;;;;;7.32;6.50;;;23.20;99.90;;;;;;5051656;28;20082;-71
2021/07/10 08:43:32;;;;;;;10.63;6.05;;;23.30;99.90;;;;;;5038693;28;20055;-70
2021/07/10 08:46:02;;;;;;;8.18;7.00;;;23.10;99.90;;;;;;5054910;28;20025;-70
2021/07/10 08:48:29;;;;;;;7.70;6.90;;;22.80;99.90;;;;;;5043447;28;20025;-68
2021/07/10 08:50:57;;;;;;;9.25;5.72;;;22.90;99.90;;;;;;5041628;28;20061;-69
2021/07/10 08:53:24;;;;;;;7.55;6.10;;;23.00;99.90;;;;;;5038145;28;20128;-68
2021/07/10 08:55:50;;;;;;;6.15;5.55;;;22.70;99.90;;;;;;5048395;28;20033;-68
2021/07/10 08:58:20;;;;;;;5.65;5.03;;;22.70;99.90;;;;;;5056062;28;20047;-71
2021/07/10 09:00:47;;;;;;;6.18;5.10;;;22.80;99.90;;;;;;5038423;28;20123;-57
2021/07/10 09:03:13;;;;;;;6.22;4.50;;;23.00;99.90;;;;;;5051419;28;20070;-58
2021/07/10 09:05:41;;;;;;;7.95;4.95;;;23.20;99.90;;;;;;5034101;28;20028;-57
2021/07/10 09:08:25;;;;;;;7.47;5.10;;;23.30;99.90;;;;;;5050813;28;20124;-59
2021/07/10 09:10:55;;;;;;;7.22;5.45;;;23.50;99.90;;;;;;5033664;28;20132;-57
2021/07/10 09:13:28;;;;;;;5.60;5.03;;;23.70;99.90;;;;;;5050385;28;20072;-57
2021/07/10 09:16:03;;;;;;;5.57;5.07;;;24.20;99.90;;;;;;5050641;28;20039;-57
2021/07/10 09:18:37;;;;;;;4.93;3.85;;;24.40;99.30;;;;;;5050870;28;20116;-57
2021/07/10 09:21:02;;;;;;;6.68;4.43;;;24.50;98.80;;;;;;5033301;28;20082;-64
2021/07/10 09:23:41;;;;;;;5.75;4.10;;;24.30;99.00;;;;;;5057870;28;20037;-58
2021/07/10 09:26:26;;;;;;;5.28;3.97;;;24.30;98.90;;;;;;5039138;28;20062;-59
2021/07/10 09:29:00;;;;;;;5.22;4.13;;;24.60;98.30;;;;;;5044133;28;20120;-57
2021/07/10 09:31:33;;;;;;;4.22;3.80;;;25.10;98.30;;;;;;5044942;28;20442;-61
2021/07/10 09:34:15;;;;;;;8.13;4.00;;;25.20;97.10;;;;;;5036597;28;20039;-59
2021/07/10 09:37:09;;;;;;;4.10;3.10;;;24.90;96.90;;;;;;5040940;28;20441;-58
2021/07/10 09:39:41;;;;;;;3.40;3.10;;;24.80;97.50;;;;;;5040022;28;20108;-58
2021/07/10 09:42:07;;;;;;;4.55;3.92;;;24.80;97.10;;;;;;5036956;28;20025;-64
2021/07/10 09:44:45;;;;;;;11.15;4.45;;;25.10;97.50;;;;;;5063079;28;20089;-59
2021/07/10 09:47:13;;;;;;;4.25;3.85;;;25.00;97.30;;;;;;5034548;28;20032;-58
2021/07/10 09:49:41;;;;;;;6.35;4.40;;;25.10;97.60;;;;;;5045765;28;20033;-59
2021/07/10 09:52:09;;;;;;;5.10;3.97;;;25.00;97.10;;;;;;5051351;28;20048;-66
2021/07/10 09:54:41;;;;;;;6.10;3.92;;;24.70;97.90;;;;;;5042030;28;20033;-60
2021/07/10 09:57:37;;;;;;;4.43;3.85;;;24.80;97.80;;;;;;5056198;28;20074;-64
2021/07/10 10:00:16;;;;;;;7.78;3.95;;;25.10;97.60;;;;;;5052064;28;20037;-69
2021/07/10 10:02:55;;;;;;;6.90;4.95;;;25.40;97.20;;;;;;5050282;28;20434;-59
2021/07/10 10:05:28;;;;;;;4.82;4.10;;;25.40;96.90;;;;;;5041562;28;20033;-72
2021/07/10 10:07:56;;;;;;;6.25;4.55;;;25.20;97.10;;;;;;5031891;28;20029;-74
2021/07/10 10:10:24;;;;;;;4.22;3.85;;;25.20;96.50;;;;;;5031095;28;20132;-75
2021/07/10 10:13:08;;;;;;;7.03;3.65;;;25.00;96.70;;;;;;5029954;28;20029;-73
2021/07/10 10:15:36;;;;;;;13.70;4.70;;;25.40;95.90;;;;;;5048839;28;20033;-73
2021/07/10 10:18:03;;;;;;;3.70;3.45;;;25.40;95.50;;;;;;5048862;28;20029;-74
2021/07/10 10:20:29;;;;;;;4.22;3.35;;;25.30;95.80;;;;;;5030873;28;20036;-75
2021/07/10 10:22:55;;;;;;;4.30;3.90;;;25.40;95.50;;;;;;5031393;28;20037;-76
2021/07/10 10:25:22;;;;;;;4.97;3.92;;;25.50;95.20;;;;;;5048924;28;20056;-74
2021/07/10 10:27:50;;;;;;;5.13;3.80;;;25.50;95.30;;;;;;5032220;28;20355;-75
2021/07/10 10:30:17;;;;;;;3.47;3.17;;;25.50;95.80;;;;;;5049418;28;20231;-74
2021/07/10 10:32:44;;;;;;;3.75;3.45;;;25.50;95.70;;;;;;5049631;28;20033;-76
2021/07/10 10:35:11;;;;;;;4.45;3.90;;;25.50;95.60;;;;;;5048677;28;20117;-77
2021/07/10 10:37:38;;;;;;;5.25;3.95;;;25.40;95.60;;;;;;5031505;28;20033;-74
2021/07/10 10:40:15;;;;;;;4.00;3.60;;;25.50;95.50;;;;;;5031420;28;20025;-75
2021/07/10 10:42:44;;;;;;;7.10;4.65;;;25.40;95.40;;;;;;5031492;28;20040;-74
2021/07/10 10:45:11;;;;;;;4.50;3.63;;;25.30;95.90;;;;;;5048950;28;20029;-75
2021/07/10 10:47:43;;;;;;;7.20;4.05;;;25.40;95.40;;;;;;5031985;28;20029;-74
2021/07/10 10:50:17;;;;;;;3.95;3.65;;;25.60;95.40;;;;;;5031160;28;20118;-74
2021/07/10 10:52:44;;;;;;;4.25;3.22;;;25.80;95.30;;;;;;5031641;28;20449;-72
2021/07/10 10:55:20;;;;;;;4.15;3.60;;;26.10;95.30;;;;;;5031258;28;20037;-75
2021/07/10 10:57:53;;;;;;;3.80;2.80;;;25.70;93.00;;;;;;5032378;28;20032;-74
2021/07/10 11:00:25;;;;;;;5.15;3.08;;;25.70;92.90;;;;;;5049799;28;20064;-75
2021/07/10 11:02:54;;;;;;;3.38;3.08;;;25.60;93.40;;;;;;5032085;28;20128;-75
2021/07/10 11:05:32;;;;;;;5.13;3.00;;;25.60;93.90;;;;;;5048711;28;20057;-74
2021/07/10 11:08:24;;;;;;;3.63;2.80;;;25.60;93.40;;;;;;5031472;28;20048;-74
2021/07/10 11:10:58;;;;;;;3.20;2.88;;;25.50;93.10;;;;;;5031815;28;20041;-75
2021/07/10 11:13:44;;;;;;;3.17;2.75;;;25.50;93.10;;;;;;5048728;28;20036;-74
2021/07/10 11:16:18;;;;;;;3.60;2.90;;;25.60;93.60;;;;;;5031311;28;20369;-73
2021/07/10 11:19:00;;;;;;;5.00;3.17;;;25.50;93.60;;;;;;5031657;28;20097;-74
2021/07/10 11:21:34;;;;;;;4.05;3.20;;;25.40;92.80;;;;;;5030551;28;20036;-73
2021/07/10 11:27:03;;;;;;;4.53;3.60;;;25.70;93.40;;;;;;5053271;28;20062;-72
2021/07/10 11:29:40;;;;;;;4.32;2.70;;;25.60;93.30;;;;;;5034222;28;20449;-74
2021/07/10 11:32:11;;;;;;;5.20;3.30;;;25.90;92.60;;;;;;5053457;28;20055;-74
2021/07/10 11:34:59;;;;;;;4.22;3.08;;;25.90;93.00;;;;;;5053315;28;20057;-75
2021/07/10 11:37:39;;;;;;;2.50;2.30;;;25.90;92.10;;;;;;5034518;28;20025;-74
2021/07/10 11:40:10;;;;;;;2.88;2.67;;;25.90;92.00;;;;;;5053125;28;20032;-74
2021/07/10 11:42:42;;;;;;;3.10;2.80;;;25.80;91.30;;;;;;5034843;28;20029;-73
2021/07/10 11:45:24;;;;;;;2.47;2.28;;;25.80;92.00;;;;;;5034794;28;20595;-72
2021/07/10 11:47:53;;;;;;;4.28;2.08;;;25.50;91.10;;;;;;5034771;28;20474;-72
2021/07/10 11:50:27;;;;;;;3.15;2.85;;;25.80;91.70;;;;;;5034030;28;20025;-75
2021/07/10 11:52:59;;;;;;;3.33;2.42;;;26.30;90.20;;;;;;5034781;28;20097;-74
2021/07/10 11:55:27;;;;;;;6.50;2.38;;;26.10;90.60;;;;;;5052233;28;20431;-74
2021/07/10 11:57:53;;;;;;;2.80;2.42;;;25.90;89.90;;;;;;5052626;28;20080;-75
2021/07/10 12:00:24;;;;;;;2.38;2.17;;;26.10;90.20;;;;;;5052024;28;20431;-72
2021/07/10 12:02:49;;;;;;;2.30;1.70;;;26.20;90.10;;;;;;5034567;28;20033;-74
2021/07/10 12:05:20;;;;;;;3.50;2.13;;;26.40;87.20;;;;;;5052108;28;20029;-75
2021/07/10 12:07:47;;;;;;;;;;;26.50;87.40;;;;;;5035394;28;20025;-73
2021/07/10 12:10:25;;;;;;;6.18;2.60;;;26.30;87.40;;;;;;5034508;28;19944;-77
2021/07/10 12:12:55;;;;;;;2.40;2.20;;;26.20;87.90;;;;;;5034254;28;20036;-75
2021/07/10 12:15:23;;;;;;;2.40;2.20;;;26.30;88.90;;;;;;5052192;28;20033;-77
2021/07/10 12:17:50;;;;;;;3.53;2.17;;;26.30;89.10;;;;;;5034392;28;20056;-74
2021/07/10 12:20:20;;;;;;;4.03;2.00;;;26.20;88.50;;;;;;5033692;28;20029;-75
2021/07/10 12:22:57;;;;;;;2.40;2.05;;;26.00;88.60;;;;;;5034143;28;20063;-76
2021/07/10 12:25:30;;;;;;;3.38;2.30;;;25.90;88.10;;;;;;5051300;28;20049;-75
2021/07/10 12:28:03;;;;;;;4.53;2.75;;;26.00;87.70;;;;;;5033753;28;20147;-74
2021/07/10 12:30:45;;;;;;;;;;;26.30;88.50;;;;;;5034176;28;20486;-73
2021/07/10 12:33:34;;;;;;;2.15;1.70;;;26.50;87.80;;;;;;5051918;28;19995;-73
2021/07/10 12:36:19;;;;;;;2.58;2.38;;;26.80;87.80;;;;;;5033549;28;20037;-74
2021/07/10 12:39:15;;;;;;;1.70;1.60;;;27.60;87.20;;;;;;5033974;28;20021;-72
2021/07/10 12:41:53;;;;;;;2.47;2.28;;;27.80;85.80;;;;;;5042953;28;20045;-75
2021/07/10 12:44:25;;;;;;;2.25;2.05;;;28.10;85.40;;;;;;5032691;28;20025;-76
2021/07/10 12:46:59;;;;;;;2.20;1.70;;;28.10;82.30;;;;;;5051833;28;20028;-73
2021/07/10 12:49:29;;;;;;;2.35;2.15;;;27.90;83.10;;;;;;5050849;28;20105;-74